createdAt,value
2024-02-22T00:01:11.744Z,6.80
2024-02-22T00:03:40.271Z,6.80
2024-02-22T00:06:09.915Z,6.70
2024-02-22T00:08:37.977Z,6.70
2024-02-22T00:11:06.452Z,6.80
2024-02-22T00:13:34.715Z,6.80
2024-02-22T00:16:04.937Z,6.70
2024-02-22T00:18:34.315Z,6.70
2024-02-22T00:21:02.735Z,6.80
2024-02-22T00:23:32.325Z,6.80
2024-02-22T00:26:00.554Z,6.80
2024-02-22T00:28:28.802Z,6.80
2024-02-22T00:30:57.063Z,6.70
2024-02-22T00:33:25.462Z,6.70
2024-02-22T00:35:53.636Z,6.70
2024-02-22T00:38:21.783Z,6.70
2024-02-22T00:40:51.568Z,6.60
2024-02-22T00:43:19.629Z,7.00
2024-02-22T00:45:47.854Z,6.60
2024-02-22T00:48:15.963Z,6.60
2024-02-22T00:50:44.161Z,6.60
2024-02-22T00:53:12.332Z,6.50
2024-02-22T00:55:41.138Z,6.90
2024-02-22T00:58:10.627Z,6.50
2024-02-22T01:00:38.897Z,6.40
2024-02-22T01:03:07.503Z,6.40
2024-02-22T01:05:35.725Z,6.30
2024-02-22T01:08:05.330Z,6.40
2024-02-22T01:10:33.986Z,6.30
2024-02-22T01:13:02.424Z,6.30
2024-02-22T01:15:33.699Z,6.20
2024-02-22T01:18:02.885Z,6.20
2024-02-22T01:20:31.181Z,6.20
2024-02-22T01:23:01.932Z,6.20
2024-02-22T01:25:30.378Z,6.10
2024-02-22T01:27:58.498Z,6.10
2024-02-22T01:30:26.691Z,6.10
2024-02-22T01:32:56.712Z,6.00
2024-02-22T01:35:24.794Z,5.90
2024-02-22T01:37:53.036Z,6.10
2024-02-22T01:40:21.261Z,6.00
2024-02-22T01:42:49.796Z,6.10
2024-02-22T01:45:18.105Z,5.90
2024-02-22T01:47:46.267Z,5.90
2024-02-22T01:50:15.994Z,6.00
2024-02-22T01:52:44.832Z,5.90
2024-02-22T01:55:13.517Z,5.90
2024-02-22T01:57:42.229Z,5.90
2024-02-22T02:00:19.029Z,5.80
2024-02-22T02:02:48.921Z,5.80
2024-02-22T02:05:18.871Z,5.80
2024-02-22T02:07:47.963Z,5.80
2024-02-22T02:10:16.244Z,5.80
2024-02-22T02:12:44.323Z,5.80
2024-02-22T02:15:13.165Z,5.90
2024-02-22T02:17:42.274Z,5.80
2024-02-22T02:20:12.726Z,5.80
2024-02-22T02:22:52.957Z,5.80
2024-02-22T02:25:23.820Z,5.60
2024-02-22T02:27:52.183Z,5.80
2024-02-22T02:30:20.318Z,5.70
2024-02-22T02:32:48.460Z,5.70
2024-02-22T02:35:16.738Z,5.70
2024-02-22T02:37:44.996Z,5.80
2024-02-22T02:40:14.249Z,5.70
2024-02-22T02:42:43.741Z,5.80
2024-02-22T02:45:12.076Z,5.70
2024-02-22T02:47:40.128Z,5.80
2024-02-22T02:50:09.813Z,5.70
2024-02-22T02:52:37.965Z,5.70
2024-02-22T02:55:06.467Z,5.70
2024-02-22T02:57:34.512Z,5.70
2024-02-22T03:00:04.503Z,5.70
2024-02-22T03:02:32.876Z,5.70
2024-02-22T03:05:01.381Z,5.70
2024-02-22T03:07:29.577Z,5.80
2024-02-22T03:09:57.647Z,5.70
2024-02-22T03:12:25.757Z,5.80
2024-02-22T03:14:54.003Z,5.70
2024-02-22T03:17:25.521Z,6.00
2024-02-22T03:19:54.364Z,5.70
2024-02-22T03:22:22.663Z,5.80
2024-02-22T03:24:50.749Z,5.60
2024-02-22T03:27:19.144Z,5.70
2024-02-22T03:29:48.722Z,5.70
2024-02-22T03:32:17.444Z,5.70
2024-02-22T03:34:46.932Z,5.80
2024-02-22T03:37:15.094Z,5.70
2024-02-22T03:39:45.436Z,5.80
2024-02-22T03:42:13.941Z,5.70
2024-02-22T03:44:42.047Z,5.80
2024-02-22T03:47:10.168Z,5.80
2024-02-22T03:49:38.244Z,5.80
2024-02-22T03:52:09.194Z,5.80
2024-02-22T03:54:38.876Z,5.80
2024-02-22T03:57:07.243Z,5.80
2024-02-22T03:59:35.280Z,5.80
2024-02-22T04:02:04.438Z,5.90
2024-02-22T04:04:32.697Z,5.80
2024-02-22T04:07:00.980Z,5.80
2024-02-22T04:09:30.404Z,5.70
2024-02-22T04:11:58.621Z,5.60
2024-02-22T04:14:26.727Z,5.70
2024-02-22T04:16:54.837Z,5.70
2024-02-22T04:19:23.013Z,5.70
2024-02-22T04:21:51.117Z,5.70
2024-02-22T04:24:19.262Z,5.70
2024-02-22T04:26:52.989Z,6.30
2024-02-22T04:29:21.165Z,5.70
2024-02-22T04:31:49.799Z,5.70
2024-02-22T04:34:18.454Z,5.70
2024-02-22T04:36:46.552Z,5.80
2024-02-22T04:39:15.308Z,6.40
2024-02-22T04:41:43.550Z,5.70
2024-02-22T04:44:13.390Z,5.80
2024-02-22T04:46:41.880Z,5.80
2024-02-22T04:49:11.300Z,5.70
2024-02-22T04:51:41.391Z,5.70
2024-02-22T04:54:10.268Z,5.70
2024-02-22T04:56:39.083Z,5.60
2024-02-22T04:59:07.167Z,5.70
2024-02-22T05:01:40.985Z,5.70
2024-02-22T05:04:11.081Z,5.70
2024-02-22T05:06:39.260Z,5.60
2024-02-22T05:09:07.291Z,5.70
2024-02-22T05:11:35.769Z,5.70
2024-02-22T05:14:03.992Z,5.60
2024-02-22T05:16:32.246Z,5.70
2024-02-22T05:19:01.775Z,5.70
2024-02-22T05:21:29.839Z,5.70
2024-02-22T05:23:57.997Z,5.70
2024-02-22T05:26:26.082Z,5.70
2024-02-22T05:28:54.931Z,5.80
2024-02-22T05:31:24.808Z,5.70
2024-02-22T05:33:53.647Z,5.80
2024-02-22T05:36:24.226Z,5.80
2024-02-22T05:38:52.245Z,6.20
2024-02-22T05:41:20.392Z,5.80
2024-02-22T05:43:48.619Z,5.80
2024-02-22T05:46:16.901Z,5.80
2024-02-22T05:48:45.477Z,5.80
2024-02-22T05:51:14.075Z,5.80
2024-02-22T05:53:44.528Z,5.80
2024-02-22T05:56:12.819Z,5.80
2024-02-22T05:58:41.098Z,5.80
2024-02-22T06:01:09.942Z,5.80
2024-02-22T06:03:38.321Z,5.80
2024-02-22T06:06:07.001Z,5.80
2024-02-22T06:08:35.540Z,5.80
2024-02-22T06:11:05.229Z,5.70
2024-02-22T06:13:33.705Z,5.80
2024-02-22T06:16:01.801Z,5.80
2024-02-22T06:18:29.931Z,5.80
2024-02-22T06:20:58.277Z,5.90
2024-02-22T06:23:26.546Z,5.80
2024-02-22T06:25:56.227Z,5.80
2024-02-22T06:28:26.013Z,6.20
2024-02-22T06:30:54.554Z,5.90
2024-02-22T06:33:23.331Z,5.90
2024-02-22T06:35:51.717Z,5.80
2024-02-22T06:38:19.932Z,6.00
2024-02-22T06:40:51.934Z,5.80
2024-02-22T06:43:20.407Z,5.90
2024-02-22T06:45:50.005Z,5.90
2024-02-22T06:48:18.184Z,5.90
2024-02-22T06:50:47.120Z,5.90
2024-02-22T06:53:15.369Z,5.90
2024-02-22T06:55:44.734Z,5.90
2024-02-22T06:58:13.002Z,5.90
2024-02-22T07:00:41.103Z,6.00
2024-02-22T07:03:12.197Z,5.90
2024-02-22T07:05:40.500Z,6.00
2024-02-22T07:08:09.177Z,6.00
2024-02-22T07:10:37.495Z,6.00
2024-02-22T07:13:06.484Z,5.90
2024-02-22T07:15:34.563Z,6.00
2024-02-22T07:18:02.802Z,6.30
2024-02-22T07:20:32.881Z,6.00
2024-02-22T07:23:01.266Z,5.90
2024-02-22T07:25:29.994Z,6.00
2024-02-22T07:27:58.252Z,6.00
2024-02-22T07:30:28.609Z,6.00
2024-02-22T07:32:57.058Z,6.10
2024-02-22T07:35:25.234Z,6.00
2024-02-22T07:37:54.823Z,6.10
2024-02-22T07:40:22.989Z,6.10
2024-02-22T07:42:51.149Z,6.10
2024-02-22T07:45:19.530Z,6.10
2024-02-22T07:47:47.722Z,6.20
2024-02-22T07:50:15.918Z,6.20
2024-02-22T07:52:44.044Z,6.20
2024-02-22T07:55:14.419Z,6.10
2024-02-22T07:57:42.763Z,6.20
2024-02-22T08:00:11.372Z,6.10
2024-02-22T08:02:39.530Z,6.20
2024-02-22T08:05:10.464Z,6.30
2024-02-22T08:07:39.350Z,6.30
2024-02-22T08:10:08.249Z,6.30
2024-02-22T08:12:37.698Z,6.30
2024-02-22T08:15:09.227Z,6.30
2024-02-22T08:17:39.814Z,6.30
2024-02-22T08:20:09.263Z,6.30
2024-02-22T08:22:37.644Z,6.40
2024-02-22T08:25:07.075Z,6.40
2024-02-22T08:27:36.792Z,6.40
2024-02-22T08:30:10.944Z,6.50
2024-02-22T08:32:39.207Z,6.50
2024-02-22T08:35:08.609Z,6.50
2024-02-22T08:37:37.009Z,6.50
2024-02-22T08:40:15.778Z,6.60
2024-02-22T08:42:55.060Z,6.60
2024-02-22T08:45:24.556Z,6.60
2024-02-22T08:47:52.647Z,6.80
2024-02-22T08:50:22.252Z,6.80
2024-02-22T08:52:50.579Z,6.80
2024-02-22T08:55:19.106Z,6.80
2024-02-22T08:57:52.447Z,6.80
2024-02-22T09:00:22.622Z,6.90
2024-02-22T09:02:53.277Z,6.90
2024-02-22T09:05:21.543Z,6.90
2024-02-22T09:07:51.068Z,6.90
2024-02-22T09:10:19.778Z,7.00
2024-02-22T09:12:47.973Z,7.00
2024-02-22T09:15:16.242Z,7.00
2024-02-22T09:17:44.499Z,7.30
2024-02-22T09:20:15.985Z,7.10
2024-02-22T09:22:44.162Z,7.10
2024-02-22T09:25:13.771Z,7.10
2024-02-22T09:27:41.889Z,7.30
2024-02-22T09:30:10.587Z,7.30
2024-02-22T09:32:38.849Z,7.30
2024-02-22T09:35:08.378Z,7.40
2024-02-22T09:37:37.936Z,7.40
2024-02-22T09:40:07.179Z,7.40
2024-02-22T09:42:37.327Z,7.50
2024-02-22T09:45:07.377Z,7.50
2024-02-22T09:47:35.738Z,7.60
2024-02-22T09:50:08.478Z,7.50
2024-02-22T09:52:38.887Z,7.60
2024-02-22T09:55:08.403Z,7.70
2024-02-22T09:57:36.708Z,7.70
2024-02-22T10:00:07.653Z,7.50
2024-02-22T10:02:36.861Z,7.80
2024-02-22T10:05:05.378Z,8.80
2024-02-22T10:07:37.046Z,8.00
2024-02-22T10:10:07.845Z,7.90
2024-02-22T10:12:38.257Z,8.00
2024-02-22T10:15:10.621Z,8.50
2024-02-22T10:17:40.031Z,8.10
2024-02-22T10:20:11.275Z,8.20
2024-02-22T10:22:40.459Z,8.20
2024-02-22T10:25:13.014Z,8.30
2024-02-22T10:27:42.651Z,8.20
2024-02-22T10:30:12.006Z,9.90
2024-02-22T10:32:41.776Z,8.40
2024-02-22T10:35:10.968Z,8.50
2024-02-22T10:37:39.132Z,8.20
2024-02-22T10:40:11.322Z,9.80
2024-02-22T10:42:39.823Z,8.20
2024-02-22T10:45:09.625Z,8.30
2024-02-22T10:47:39.164Z,8.30
2024-02-22T10:50:08.892Z,8.30
2024-02-22T10:52:41.353Z,8.40
2024-02-22T10:55:15.569Z,8.50
2024-02-22T10:57:46.290Z,8.50
2024-02-22T11:00:16.519Z,8.70
2024-02-22T11:02:46.561Z,8.60
2024-02-22T11:05:16.219Z,8.50
2024-02-22T11:07:45.610Z,8.50
2024-02-22T11:10:15.229Z,8.60
2024-02-22T11:12:46.912Z,8.60
2024-02-22T11:15:16.099Z,8.50
2024-02-22T11:17:54.292Z,8.90
2024-02-22T11:20:33.637Z,8.50
2024-02-22T11:23:12.601Z,8.50
2024-02-22T11:25:42.646Z,8.50
2024-02-22T11:28:11.311Z,8.50
2024-02-22T11:30:41.385Z,8.50
2024-02-22T11:33:12.183Z,9.00
2024-02-22T11:35:42.245Z,8.50
2024-02-22T11:38:10.470Z,9.00
2024-02-22T11:40:39.571Z,8.50
2024-02-22T11:43:09.052Z,8.40
2024-02-22T11:45:37.427Z,8.60
2024-02-22T11:48:07.247Z,8.50
2024-02-22T12:00:34.224Z,8.30
2024-02-22T12:05:31.273Z,8.40
2024-02-22T12:17:58.042Z,8.20
2024-02-22T12:20:27.716Z,8.20
2024-02-22T12:22:56.740Z,8.20
2024-02-22T12:25:25.492Z,8.20
2024-02-22T12:27:54.714Z,8.20
2024-02-22T12:30:24.217Z,8.30
2024-02-22T12:32:53.102Z,8.30
2024-02-22T12:35:23.855Z,8.20
2024-02-22T12:37:52.155Z,11.30
2024-02-22T12:40:20.429Z,8.10
2024-02-22T12:42:57.611Z,8.20
2024-02-22T12:45:25.777Z,8.20
2024-02-22T12:47:53.967Z,8.10
2024-02-22T12:50:24.060Z,8.20
2024-02-22T12:52:52.210Z,8.10
2024-02-22T12:55:23.998Z,8.10
2024-02-22T12:57:52.126Z,8.20
2024-02-22T13:00:20.510Z,8.10
2024-02-22T13:02:49.254Z,8.10
2024-02-22T13:05:17.463Z,8.10
2024-02-22T13:07:47.123Z,8.20
2024-02-22T13:10:15.356Z,8.10
2024-02-22T13:12:43.526Z,8.10
2024-02-22T13:15:12.077Z,8.10
2024-02-22T13:17:40.299Z,8.10
2024-02-22T13:20:10.037Z,8.10
2024-02-22T13:22:38.269Z,8.10
2024-02-22T13:25:08.734Z,8.10
2024-02-22T13:27:37.164Z,8.10
2024-02-22T13:30:06.242Z,8.20
2024-02-22T13:32:34.570Z,8.10
2024-02-22T13:35:02.996Z,8.10
2024-02-22T13:37:31.135Z,8.10
2024-02-22T13:40:06.608Z,8.10
2024-02-22T13:42:40.050Z,8.20
2024-02-22T13:45:09.559Z,8.20
2024-02-22T13:47:37.989Z,8.20
2024-02-22T13:50:07.372Z,8.10
2024-02-22T13:52:35.499Z,8.20
2024-02-22T13:55:07.203Z,8.20
2024-02-22T13:57:35.431Z,8.20
2024-02-22T14:00:07.423Z,8.20
2024-02-22T14:02:35.612Z,8.20
2024-02-22T14:05:05.713Z,8.20
2024-02-22T14:07:34.076Z,8.20
2024-02-22T14:10:03.770Z,8.20
2024-02-22T14:12:32.178Z,8.20
2024-02-22T14:15:00.536Z,8.20
2024-02-22T14:17:30.043Z,8.20
2024-02-22T14:19:58.304Z,8.10
2024-02-22T14:22:26.603Z,8.20
2024-02-22T14:24:54.706Z,8.70
2024-02-22T14:27:24.313Z,8.30
2024-02-22T14:29:53.461Z,8.10
2024-02-22T14:32:24.734Z,8.20
2024-02-22T14:34:54.381Z,8.20
2024-02-22T14:37:22.448Z,8.10
2024-02-22T14:39:50.590Z,8.10
2024-02-22T14:42:20.060Z,8.10
2024-02-22T14:44:48.462Z,8.10
2024-02-22T14:47:16.739Z,8.10
2024-02-22T14:49:45.958Z,8.10
2024-02-22T14:52:15.756Z,8.10
2024-02-22T14:54:44.342Z,8.10
2024-02-22T14:57:12.587Z,8.00
2024-02-22T14:59:40.811Z,8.10
2024-02-22T15:02:08.963Z,8.20
2024-02-22T15:04:37.208Z,8.30
2024-02-22T15:07:06.623Z,8.20
2024-02-22T15:09:36.277Z,8.20
2024-02-22T15:12:05.743Z,8.20
2024-02-22T15:14:34.306Z,8.20
2024-02-22T15:17:03.528Z,8.20
2024-02-22T15:19:34.860Z,8.20
2024-02-22T15:22:04.438Z,8.20
2024-02-22T15:24:32.661Z,8.20
2024-02-22T15:27:02.911Z,8.10
2024-02-22T15:29:33.276Z,8.20
2024-02-22T15:32:02.549Z,8.10
2024-02-22T15:34:30.895Z,8.10
2024-02-22T15:36:59.237Z,8.30
2024-02-22T15:39:27.368Z,8.10
2024-02-22T15:41:55.444Z,8.10
2024-02-22T15:44:25.120Z,8.20
2024-02-22T15:46:54.588Z,8.20
2024-02-22T15:49:23.453Z,8.10
2024-02-22T15:51:54.722Z,8.20
2024-02-22T15:54:23.010Z,8.10
2024-02-22T15:56:51.331Z,8.20
2024-02-22T15:59:19.508Z,8.10
2024-02-22T16:01:49.273Z,8.20
2024-02-22T16:04:18.541Z,8.30
2024-02-22T16:06:46.696Z,8.10
2024-02-22T16:09:14.905Z,8.10
2024-02-22T16:11:43.542Z,8.10
2024-02-22T16:14:13.028Z,8.10
2024-02-22T16:16:41.976Z,8.10
2024-02-22T16:19:15.253Z,8.10
2024-02-22T16:21:43.966Z,8.20
2024-02-22T16:24:13.376Z,8.10
2024-02-22T16:26:41.517Z,8.10
2024-02-22T16:29:11.231Z,8.10
2024-02-22T16:31:40.007Z,8.10
2024-02-22T16:34:08.326Z,8.10
2024-02-22T16:36:37.937Z,8.10
2024-02-22T16:39:10.397Z,8.10
2024-02-22T16:41:41.466Z,8.10
2024-02-22T16:44:10.160Z,8.10
2024-02-22T16:46:42.394Z,8.10
2024-02-22T16:49:10.713Z,8.10
2024-02-22T16:51:40.357Z,8.10
2024-02-22T16:54:08.682Z,8.00
2024-02-22T16:56:38.375Z,8.00
2024-02-22T16:59:06.555Z,8.00
2024-02-22T17:01:34.735Z,8.00
2024-02-22T17:04:02.899Z,8.00
2024-02-22T17:06:32.839Z,8.00
2024-02-22T17:09:02.323Z,8.00
2024-02-22T17:11:31.847Z,8.00
2024-02-22T17:14:01.907Z,7.90
2024-02-22T17:16:30.572Z,8.00
2024-02-22T17:18:58.760Z,8.10
2024-02-22T17:21:26.824Z,8.00
2024-02-22T17:23:54.940Z,7.90
2024-02-22T17:26:24.648Z,8.10
2024-02-22T17:28:52.959Z,8.10
2024-02-22T17:31:21.686Z,7.80
2024-02-22T17:33:49.852Z,7.80
2024-02-22T17:36:18.615Z,7.90
2024-02-22T17:38:46.649Z,7.80
2024-02-22T17:41:14.799Z,8.00
2024-02-22T17:43:44.305Z,7.90
2024-02-22T17:46:14.270Z,7.90
2024-02-22T17:48:42.790Z,7.90
2024-02-22T17:51:10.983Z,7.90
2024-02-22T17:53:40.252Z,7.90
2024-02-22T17:56:09.018Z,7.90
2024-02-22T17:58:47.945Z,7.90
2024-02-22T18:01:24.947Z,7.80
2024-02-22T18:03:53.137Z,7.90
2024-02-22T18:06:22.077Z,8.00
2024-02-22T18:08:50.382Z,7.80
2024-02-22T18:11:18.980Z,7.90
2024-02-22T18:13:47.139Z,8.00
2024-02-22T18:16:15.348Z,7.90
2024-02-22T18:18:46.107Z,7.90
2024-02-22T18:21:14.961Z,7.90
2024-02-22T18:23:45.729Z,7.90
2024-02-22T18:26:15.288Z,7.90
2024-02-22T18:28:44.779Z,7.90
2024-02-22T18:31:13.067Z,7.90
2024-02-22T18:33:41.397Z,8.00
2024-02-22T18:36:11.427Z,8.00
2024-02-22T18:38:42.369Z,8.00
2024-02-22T18:41:14.121Z,8.00
2024-02-22T18:43:42.874Z,8.10
2024-02-22T18:46:11.214Z,8.00
2024-02-22T18:48:39.761Z,8.00
2024-02-22T18:51:07.940Z,8.00
2024-02-22T18:53:38.697Z,8.00
2024-02-22T18:56:07.257Z,8.10
2024-02-22T18:58:35.417Z,8.00
2024-02-22T19:01:03.724Z,8.00
2024-02-22T19:03:31.938Z,8.00
2024-02-22T19:05:59.132Z,7.90
2024-02-22T19:08:27.363Z,8.00
2024-02-22T19:10:56.888Z,8.10
2024-02-22T19:13:26.701Z,8.00
2024-02-22T19:15:54.890Z,8.00
2024-02-22T19:18:23.042Z,8.00
2024-02-22T19:20:52.250Z,7.90
2024-02-22T19:23:21.353Z,8.00
2024-02-22T19:25:50.803Z,7.90
2024-02-22T19:28:24.785Z,8.00
2024-02-22T19:30:56.330Z,8.30
2024-02-22T19:33:25.036Z,8.00
2024-02-22T19:35:53.321Z,8.00
2024-02-22T19:38:22.094Z,8.00
2024-02-22T19:40:52.387Z,8.10
2024-02-22T19:43:34.837Z,8.00
2024-02-22T19:46:05.753Z,7.80
2024-02-22T19:48:34.634Z,8.10
2024-02-22T19:51:02.737Z,7.90
2024-02-22T19:53:30.911Z,7.90
2024-02-22T19:55:59.189Z,7.90
2024-02-22T19:58:28.690Z,7.80
2024-02-22T20:00:59.188Z,7.80
2024-02-22T20:03:29.231Z,7.90
2024-02-22T20:05:57.616Z,7.80
2024-02-22T20:08:26.727Z,7.80
2024-02-22T20:10:56.294Z,7.80
2024-02-22T20:13:24.619Z,7.80
2024-02-22T20:15:54.123Z,7.80
2024-02-22T20:18:22.263Z,7.80
2024-02-22T20:20:50.514Z,8.00
2024-02-22T20:23:18.649Z,7.80
2024-02-22T20:25:46.699Z,7.80
2024-02-22T20:28:15.774Z,7.80
2024-02-22T20:30:44.025Z,7.80
2024-02-22T20:33:14.993Z,7.80
2024-02-22T20:35:43.201Z,7.80
2024-02-22T20:38:11.492Z,7.80
2024-02-22T20:40:39.716Z,7.80
2024-02-22T20:43:07.959Z,7.90
2024-02-22T20:45:38.697Z,7.90
2024-02-22T20:48:08.738Z,8.00
2024-02-22T20:50:38.340Z,7.90
2024-02-22T20:53:07.192Z,7.90
2024-02-22T20:55:35.736Z,7.90
2024-02-22T20:58:04.171Z,7.90
2024-02-22T21:00:32.260Z,7.90
2024-02-22T21:03:01.609Z,8.00
2024-02-22T21:05:35.243Z,8.00
2024-02-22T21:08:06.532Z,8.00
2024-02-22T21:10:34.877Z,8.00
2024-02-22T21:13:03.077Z,8.00
2024-02-22T21:15:32.151Z,8.00
2024-02-22T21:18:00.399Z,8.00
2024-02-22T21:20:28.615Z,8.00
2024-02-22T21:22:56.740Z,8.00
2024-02-22T21:25:26.221Z,8.00
2024-02-22T21:27:54.398Z,8.10
2024-02-22T21:30:22.420Z,8.00
2024-02-22T21:32:50.570Z,8.10
2024-02-22T21:35:18.755Z,8.00
2024-02-22T21:37:47.567Z,8.10
2024-02-22T21:40:16.071Z,8.30
2024-02-22T21:42:47.195Z,8.10
2024-02-22T21:45:15.484Z,8.10
2024-02-22T21:47:44.273Z,8.10
2024-02-22T21:50:13.553Z,8.10
2024-02-22T21:52:42.751Z,8.10
2024-02-22T21:55:11.724Z,8.10
2024-02-22T21:57:39.910Z,8.10
2024-02-22T22:00:11.491Z,8.10
2024-02-22T22:05:26.567Z,8.20
2024-02-22T22:07:56.920Z,8.10
2024-02-22T22:10:25.491Z,8.20
2024-02-22T22:12:54.016Z,8.20
2024-02-22T22:15:23.558Z,8.20
2024-02-22T22:17:51.649Z,8.20
2024-02-22T22:20:19.930Z,8.20
2024-02-22T22:22:48.028Z,8.20
2024-02-22T22:25:17.820Z,8.20
2024-02-22T22:27:45.883Z,8.20
2024-02-22T22:30:14.215Z,8.20
2024-02-22T22:32:43.590Z,8.20
2024-02-22T22:35:11.988Z,8.20
2024-02-22T22:37:40.120Z,8.20
2024-02-22T22:40:11.094Z,8.20
2024-02-22T22:42:41.893Z,8.20
2024-02-22T22:45:10.612Z,8.20
2024-02-22T22:47:38.692Z,8.30
2024-02-22T22:50:10.817Z,8.30
2024-02-22T22:52:38.953Z,8.30
2024-02-22T22:55:08.117Z,8.20
2024-02-22T22:57:36.549Z,8.40
2024-02-22T23:00:09.941Z,8.30
2024-02-22T23:02:38.057Z,8.30
2024-02-22T23:05:08.248Z,8.30
2024-02-22T23:07:36.667Z,8.30
2024-02-22T23:10:05.849Z,8.30
2024-02-22T23:12:34.101Z,8.30
2024-02-22T23:15:02.124Z,8.30
2024-02-22T23:17:30.270Z,8.30
2024-02-22T23:19:59.666Z,8.30
2024-02-22T23:22:31.633Z,8.30
2024-02-22T23:25:00.925Z,8.30
2024-02-22T23:27:29.014Z,8.30
2024-02-22T23:29:57.370Z,8.30
2024-02-22T23:32:25.572Z,8.30
2024-02-22T23:34:53.881Z,8.20
2024-02-22T23:37:22.707Z,8.30
2024-02-22T23:39:52.393Z,8.30
2024-02-22T23:42:20.604Z,8.40
2024-02-22T23:44:48.835Z,8.40
2024-02-22T23:47:17.647Z,8.40
2024-02-22T23:49:45.945Z,8.40
2024-02-22T23:52:14.705Z,8.50
2024-02-22T23:54:42.890Z,8.40
2024-02-22T23:57:12.319Z,8.30
2024-02-22T23:59:41.185Z,8.40
